Time;durP1;ratioP1;P1;durP2;ratioP2;P2;SDS_P1;SDS_P2;PMS_P1;PMS_P2;Temp;Humidity;BMP_temperature;BMP_pressure;BME280_temperature;BME280_humidity;BME280_pressure;Samples;Min_cycle;Max_cycle;Signal;HPM_P1;HPM_P2
2022/05/01 00:03:31;;;;;;;29.85;17.87;;;;;;;6.26;59.75;101134.63;3464969;79;20987;-74
2022/05/01 00:08:21;;;;;;;23.45;14.87;;;;;;;6.25;60.02;101132.88;3498290;78;21099;-74
2022/05/01 00:13:15;;;;;;;26.07;17.67;;;;;;;6.20;60.14;101138.27;3467323;80;20985;-75
2022/05/01 00:18:06;;;;;;;25.08;17.25;;;;;;;6.18;60.27;101136.03;3477335;80;21013;-74
2022/05/01 00:22:57;;;;;;;29.15;19.07;;;;;;;6.10;60.29;101137.02;3455954;79;20974;-74
2022/05/01 00:27:48;;;;;;;26.87;17.92;;;;;;;6.00;60.33;101131.86;3429593;79;20977;-74
2022/05/01 00:37:54;;;;;;;31.80;17.87;;;;;;;5.97;60.59;101127.84;3497167;80;20958;-74
2022/05/01 00:42:45;;;;;;;29.80;17.87;;;;;;;5.93;60.82;101120.77;3448759;79;21012;-74
2022/05/01 00:47:36;;;;;;;26.02;18.15;;;;;;;5.93;60.92;101124.22;3435846;79;20967;-74
2022/05/01 00:52:28;;;;;;;21.77;16.80;;;;;;;5.89;60.84;101131.79;3473271;79;20896;-74
2022/05/01 00:57:19;;;;;;;25.57;16.00;;;;;;;5.81;60.91;101130.56;3430642;80;20936;-74
2022/05/01 01:02:11;;;;;;;21.42;15.75;;;;;;;5.72;61.30;101129.38;3487330;80;21357;-74
2022/05/01 01:07:03;;;;;;;23.98;15.78;;;;;;;5.61;61.52;101125.42;3425656;80;21480;-74
2022/05/01 01:16:59;;;;;;;28.17;18.05;;;;;;;5.48;61.42;101123.14;3296300;84;21144;-74
2022/05/01 01:21:53;;;;;;;24.15;17.48;;;;;;;5.41;61.49;101128.84;3320987;84;22001;-74
2022/05/01 01:26:44;;;;;;;23.15;16.65;;;;;;;5.37;61.73;101132.98;3298119;84;21122;-74
2022/05/01 01:31:43;;;;;;;25.90;17.70;;;;;;;5.41;61.85;101119.81;3316807;84;21032;-74
2022/05/01 01:36:38;;;;;;;22.42;17.02;;;;;;;5.39;61.96;101121.44;3318801;84;21031;-74
2022/05/01 01:41:31;;;;;;;21.35;15.70;;;;;;;5.37;62.34;101123.08;3320767;85;21121;-74
2022/05/01 01:46:23;;;;;;;21.45;14.80;;;;;;;5.26;62.59;101125.17;3296204;85;21084;-74
2022/05/01 01:51:15;;;;;;;21.05;15.43;;;;;;;5.15;62.83;101125.95;3388843;80;20968;-74
2022/05/01 01:56:08;;;;;;;20.52;13.83;;;;;;;5.06;62.59;101122.95;3458928;81;20899;-74
2022/05/01 02:00:59;;;;;;;17.70;14.00;;;;;;;4.92;62.63;101121.06;3442013;80;21315;-74
2022/05/01 02:05:50;;;;;;;25.08;15.32;;;;;;;4.80;63.11;101125.22;3477682;80;20905;-74
2022/05/01 02:10:42;;;;;;;24.75;15.70;;;;;;;4.75;63.25;101125.41;3465117;80;21533;-74
2022/05/01 02:15:35;;;;;;;23.50;16.17;;;;;;;4.64;62.86;101126.19;3409836;80;21564;-74
2022/05/01 02:21:34;;;;;;;20.17;16.12;;;;;;;4.65;63.30;101120.63;3433537;80;20920;-74
2022/05/01 02:25:22;;;;;;;18.23;14.83;;;;;;;4.62;63.25;101124.37;3477528;80;20951;-74
2022/05/01 02:30:14;;;;;;;19.45;15.08;;;;;;;4.52;63.17;101118.75;3450532;80;21021;-74
2022/05/01 02:35:07;;;;;;;27.85;15.55;;;;;;;4.41;63.38;101117.36;3436750;80;21832;-74
2022/05/01 02:39:58;;;;;;;19.65;14.38;;;;;;;4.35;63.22;101112.80;3441379;80;20908;-74
2022/05/01 02:44:49;;;;;;;17.55;14.35;;;;;;;4.29;63.23;101110.33;3484020;80;20948;-74
2022/05/01 02:49:42;;;;;;;21.93;15.25;;;;;;;4.19;63.28;101106.02;3478629;80;21001;-74
2022/05/01 02:54:34;;;;;;;23.12;16.75;;;;;;;4.10;63.29;101104.29;3482559;80;21468;-74
2022/05/01 02:59:25;;;;;;;23.67;16.52;;;;;;;3.96;63.30;101109.16;3502090;79;22031;-74
2022/05/01 03:04:16;;;;;;;23.20;16.77;;;;;;;3.95;63.59;101115.09;3535630;79;21006;-74
2022/05/01 03:09:10;;;;;;;22.70;17.52;;;;;;;3.97;63.75;101110.52;3487179;80;20954;-74
2022/05/01 03:14:01;;;;;;;23.80;14.75;;;;;;;3.97;63.85;101103.19;3488745;79;21489;-74
2022/05/01 03:24:01;;;;;;;16.50;13.95;;;;;;;3.86;63.80;101114.64;3565506;79;22156;-74
2022/05/01 03:28:54;;;;;;;19.35;14.95;;;;;;;3.77;63.93;101117.25;3558789;79;20966;-74
2022/05/01 03:33:45;;;;;;;19.75;14.35;;;;;;;3.74;63.86;101120.94;3477816;80;22153;-74
2022/05/01 03:38:42;;;;;;;24.23;17.48;;;;;;;3.71;63.92;101120.77;3568277;78;22822;-74
2022/05/01 03:43:36;;;;;;;25.37;17.45;;;;;;;3.75;63.90;101120.11;3525286;80;21694;-74
2022/05/01 03:48:28;;;;;;;25.37;17.12;;;;;;;3.84;63.92;101123.56;3523947;79;22051;-74
2022/05/01 03:53:22;;;;;;;22.62;15.50;;;;;;;3.91;63.86;101115.34;3501336;79;20943;-74
2022/05/01 03:58:14;;;;;;;21.62;15.10;;;;;;;4.06;63.97;101112.67;3493159;80;20959;-74
2022/05/01 04:03:05;;;;;;;22.90;17.85;;;;;;;4.26;63.87;101121.78;3478917;79;20979;-74
2022/05/01 04:07:56;;;;;;;17.57;13.65;;;;;;;4.36;63.95;101123.98;3488972;80;20888;-74
2022/05/01 04:12:47;;;;;;;20.95;14.68;;;;;;;4.43;63.73;101123.47;3408829;80;20992;-74
2022/05/01 04:17:40;;;;;;;23.80;15.20;;;;;;;4.46;63.66;101126.19;3508638;80;20895;-74
2022/05/01 04:22:39;;;;;;;18.73;15.78;;;;;;;4.66;63.62;101130.13;3421830;81;20979;-74
2022/05/01 04:27:30;;;;;;;18.45;14.83;;;;;;;4.67;63.73;101124.15;3478728;80;20944;-74
2022/05/01 04:32:21;;;;;;;21.48;16.95;;;;;;;4.68;63.91;101122.94;3500068;79;20903;-74
2022/05/01 04:37:12;;;;;;;24.00;17.45;;;;;;;4.69;63.42;101126.42;3456294;80;21937;-74
2022/05/01 04:42:04;;;;;;;23.47;17.50;;;;;;;4.80;63.96;101132.95;3483520;80;21089;-74
2022/05/01 04:46:55;;;;;;;22.67;16.45;;;;;;;4.87;63.96;101136.30;3484517;79;20889;-75
2022/05/01 04:51:47;;;;;;;21.70;17.10;;;;;;;4.93;64.12;101127.95;3424020;80;21034;-74
2022/05/01 05:01:48;;;;;;;20.50;16.15;;;;;;;5.09;64.33;101126.97;3555799;79;22068;-75
2022/05/01 05:06:39;;;;;;;19.80;14.65;;;;;;;5.18;64.53;101127.39;3516496;80;20935;-75
2022/05/01 05:11:30;;;;;;;22.30;17.20;;;;;;;5.32;64.99;101134.05;3574498;79;20950;-75
2022/05/01 05:16:21;;;;;;;25.50;17.98;;;;;;;5.46;65.10;101122.19;3569377;78;21713;-75
2022/05/01 05:21:12;;;;;;;21.62;16.15;;;;;;;5.72;65.50;101120.34;3494952;79;21035;-75
2022/05/01 05:26:03;;;;;;;21.50;16.67;;;;;;;6.01;65.86;101118.14;3547120;80;20932;-75
2022/05/01 05:30:54;;;;;;;22.00;16.10;;;;;;;6.31;66.00;101118.91;3500370;79;21022;-75
2022/05/01 05:35:46;;;;;;;21.90;14.38;;;;;;;6.59;66.12;101121.33;3516799;79;21196;-75
2022/05/01 05:40:38;;;;;;;15.50;12.45;;;;;;;6.87;65.94;101113.83;3546817;79;20911;-75
2022/05/01 05:45:30;;;;;;;15.28;13.35;;;;;;;7.16;66.01;101128.27;3484281;79;21002;-75
2022/05/01 05:50:21;;;;;;;16.00;13.50;;;;;;;7.52;65.88;101123.09;3521225;79;21406;-75
2022/05/01 05:55:13;;;;;;;21.75;12.85;;;;;;;7.91;65.47;101124.03;3514665;79;20971;-75
2022/05/01 06:00:06;;;;;;;14.95;12.53;;;;;;;8.39;64.83;101132.55;3585565;78;20982;-75
2022/05/01 06:04:59;;;;;;;14.05;12.40;;;;;;;8.85;64.05;101129.67;3528285;78;20988;-75
2022/05/01 06:09:50;;;;;;;14.00;11.38;;;;;;;10.08;62.42;101123.59;3502598;79;20935;-76
2022/05/01 06:14:41;;;;;;;13.70;12.33;;;;;;;13.66;58.45;101117.97;3545964;78;20970;-76
2022/05/01 06:19:32;;;;;;;13.38;10.80;;;;;;;13.66;58.45;101117.97;3524492;78;21474;-77
2022/05/01 06:24:23;;;;;;;11.53;10.43;;;;;;;16.99;53.23;101115.43;3558152;78;20947;-77
2022/05/01 06:29:14;;;;;;;11.43;10.23;;;;;;;19.91;49.53;101112.39;3520205;78;21080;-77
2022/05/01 06:34:05;;;;;;;11.43;10.25;;;;;;;20.69;47.16;101115.48;3566232;78;20927;-77
2022/05/01 06:38:57;;;;;;;10.20;9.33;;;;;;;20.24;46.82;101121.52;3578020;78;21190;-77
2022/05/01 06:43:48;;;;;;;10.30;9.33;;;;;;;20.43;44.98;101122.09;3535103;79;20891;-76
2022/05/01 06:48:39;;;;;;;12.43;10.50;;;;;;;20.23;44.60;101120.22;3447479;80;20962;-76
2022/05/01 06:53:30;;;;;;;9.15;8.35;;;;;;;20.98;42.91;101127.27;3534094;78;21013;-76
2022/05/01 06:58:21;;;;;;;9.90;9.00;;;;;;;21.27;42.13;101118.77;3473868;80;21513;-76
2022/05/01 07:03:12;;;;;;;9.43;8.58;;;;;;;21.77;41.07;101111.97;3456829;80;21171;-74
2022/05/01 07:08:04;;;;;;;9.78;7.40;;;;;;;22.57;39.47;101111.31;3495439;80;20912;-74
2022/05/01 07:12:55;;;;;;;7.65;6.50;;;;;;;22.42;38.98;101111.27;3457210;80;21105;-74
2022/05/01 07:17:45;;;;;;;6.97;6.20;;;;;;;23.08;37.58;101105.52;3446836;80;21061;-74
2022/05/01 07:22:37;;;;;;;7.03;6.30;;;;;;;23.53;35.31;101109.49;3434562;80;20990;-74
2022/05/01 07:27:28;;;;;;;7.90;6.58;;;;;;;24.15;34.82;101111.09;3456596;80;21072;-74
2022/05/01 07:32:19;;;;;;;6.72;5.47;;;;;;;26.61;32.24;101109.73;3442653;80;20943;-75
2022/05/01 07:37:10;;;;;;;6.78;5.60;;;;;;;29.34;30.31;101106.16;3452428;80;20907;-75
2022/05/01 07:42:01;;;;;;;6.17;5.67;;;;;;;30.82;29.02;101098.86;3457534;80;21756;-75
2022/05/01 07:46:52;;;;;;;5.15;4.75;;;;;;;31.18;27.18;101099.75;3455274;80;20954;-75
2022/05/01 07:51:44;;;;;;;5.20;4.58;;;;;;;30.43;27.22;101093.67;3465167;81;20969;-74
2022/05/01 07:56:35;;;;;;;4.87;4.20;;;;;;;29.79;26.76;101088.45;3483497;80;20956;-74
2022/05/01 08:01:28;;;;;;;4.53;4.15;;;;;;;29.87;26.56;101090.67;3484840;80;20943;-75
2022/05/01 08:06:21;;;;;;;6.30;4.75;;;;;;;29.45;26.47;101087.66;3419993;80;20964;-75
2022/05/01 08:11:13;;;;;;;5.08;4.67;;;;;;;28.11;26.35;101094.26;3394937;80;20916;-75
2022/05/01 08:16:04;;;;;;;5.62;5.03;;;;;;;27.81;26.71;101085.08;3495806;79;22012;-74
2022/05/01 08:21:08;;;;;;;5.70;5.20;;;;;;;26.90;26.77;101086.22;3431391;80;20956;-74
2022/05/01 08:26:06;;;;;;;5.67;4.92;;;;;;;26.47;26.54;101080.55;3440610;80;21398;-74
2022/05/01 08:30:57;;;;;;;5.87;5.00;;;;;;;26.21;26.82;101076.75;3443332;80;21007;-74
2022/05/01 08:35:49;;;;;;;5.62;4.75;;;;;;;26.12;26.24;101073.15;3424707;80;20936;-74
2022/05/01 08:40:40;;;;;;;6.20;4.05;;;;;;;26.15;26.68;101060.15;3445741;80;21186;-74
2022/05/01 08:45:47;;;;;;;4.37;3.98;;;;;;;26.17;25.83;101063.17;3427332;81;34670;-74
2022/05/01 08:50:38;;;;;;;4.80;4.35;;;;;;;26.27;26.02;101052.11;3379998;82;20960;-74
2022/05/01 08:55:31;;;;;;;4.40;3.58;;;;;;;25.85;26.33;101055.17;3369377;82;20996;-74
2022/05/01 09:00:22;;;;;;;4.55;3.60;;;;;;;25.73;26.12;101046.35;3392451;81;21037;-74
2022/05/01 09:05:15;;;;;;;3.87;3.15;;;;;;;25.61;26.18;101053.03;3460892;80;22158;-74
2022/05/01 09:10:09;;;;;;;4.05;3.65;;;;;;;25.80;25.34;101052.69;3478661;81;20965;-74
2022/05/01 09:15:00;;;;;;;3.72;3.00;;;;;;;25.34;25.83;101053.20;3422803;81;21094;-74
2022/05/01 09:19:55;;;;;;;5.87;3.58;;;;;;;24.83;25.68;101051.61;3513481;81;20884;-74
2022/05/01 09:24:52;;;;;;;4.22;3.15;;;;;;;24.93;25.13;101049.88;3450441;80;21310;-74
2022/05/01 09:29:40;;;;;;;4.17;3.30;;;;;;;25.22;25.94;101039.91;3478934;80;21229;-74
2022/05/01 09:34:37;;;;;;;3.10;2.90;;;;;;;26.04;24.70;101040.63;3508004;80;20966;-74
2022/05/01 09:39:31;;;;;;;5.12;3.20;;;;;;;27.22;24.93;101033.13;3496968;80;20974;-74
2022/05/01 09:44:23;;;;;;;2.92;2.62;;;;;;;28.20;23.80;101034.60;3464116;81;20920;-74
2022/05/01 09:49:19;;;;;;;3.90;2.70;;;;;;;28.99;22.22;101025.94;3433499;80;21074;-74
2022/05/01 09:54:24;;;;;;;4.35;2.90;;;;;;;28.97;22.05;101022.49;3522230;80;21230;-74
2022/05/01 09:59:17;;;;;;;3.10;2.65;;;;;;;30.33;21.04;101021.75;3563309;79;21440;-74
2022/05/01 10:04:09;;;;;;;5.53;2.98;;;;;;;31.09;20.18;101017.95;3428855;80;21000;-74
2022/05/01 10:09:03;;;;;;;4.17;2.70;;;;;;;30.91;19.80;101015.95;3473567;79;20914;-74
2022/05/01 10:13:54;;;;;;;4.75;2.50;;;;;;;30.67;20.31;101000.91;3518873;79;20914;-74
2022/05/01 10:18:46;;;;;;;5.45;3.17;;;;;;;30.66;19.96;101004.56;3517590;79;21936;-74
2022/05/01 10:23:40;;;;;;;4.37;2.80;;;;;;;29.90;20.21;101006.93;3445838;79;21408;-74
2022/05/01 10:28:36;;;;;;;3.10;2.67;;;;;;;28.79;20.63;101001.14;3533099;79;20926;-74
2022/05/01 10:33:51;;;;;;;4.03;2.80;;;;;;;28.15;20.72;100997.41;3477674;79;21269;-74
2022/05/01 10:38:56;;;;;;;2.67;2.40;;;;;;;28.26;20.76;100999.52;3518829;80;20900;-74
2022/05/01 10:43:57;;;;;;;3.33;2.07;;;;;;;28.33;20.06;100996.45;3470991;80;21282;-74
2022/05/01 10:48:49;;;;;;;6.70;2.30;;;;;;;28.46;19.05;101000.67;3489581;80;20982;-74
2022/05/01 10:53:41;;;;;;;3.33;2.40;;;;;;;28.23;19.01;100991.20;3439731;81;20962;-74
2022/05/01 10:58:33;;;;;;;2.40;2.20;;;;;;;28.77;19.84;100983.47;3409280;79;20931;-74
2022/05/01 11:03:27;;;;;;;2.63;2.43;;;;;;;28.94;19.07;100970.02;3428569;81;21683;-74
2022/05/01 11:08:23;;;;;;;2.40;2.20;;;;;;;29.31;19.30;100969.75;3441967;80;21456;-74
2022/05/01 11:13:17;;;;;;;;;;;;;;;29.90;18.63;100969.41;3457175;81;22258;-74
2022/05/01 11:18:08;;;;;;;2.42;2.22;;;;;;;30.02;18.14;100972.69;3453774;80;20213;-74
2022/05/01 11:23:17;;;;;;;3.08;2.02;;;;;;;30.45;18.30;100967.02;3423290;83;20967;-74
2022/05/01 11:28:08;;;;;;;3.40;2.58;;;;;;;30.21;19.09;100968.90;3230345;87;21078;-73
2022/05/01 11:33:11;;;;;;;2.30;2.10;;;;;;;29.71;18.40;100963.39;3314755;85;21913;-74
2022/05/01 11:38:07;;;;;;;2.83;2.52;;;;;;;28.75;20.03;100951.44;3263509;85;20986;-74
2022/05/01 11:43:16;;;;;;;4.25;2.90;;;;;;;27.57;19.83;100962.02;3250256;85;20971;-73
2022/05/01 11:48:14;;;;;;;4.95;2.72;;;;;;;26.70;20.53;100946.23;3231102;85;21006;-73
2022/05/01 11:53:19;;;;;;;2.95;2.15;;;;;;;26.04;21.59;100942.05;3257813;85;21520;-73
2022/05/01 12:03:25;;;;;;;2.65;2.45;;;;;;;25.23;23.34;100926.35;3432212;79;20973;-73
2022/05/01 12:08:21;;;;;;;3.52;2.10;;;;;;;25.39;23.23;100927.95;3488242;79;20946;-73
2022/05/01 12:13:21;;;;;;;;;;;;;;;25.21;23.04;100926.88;3476515;79;20914;-73
2022/05/01 12:18:12;;;;;;;4.72;2.47;;;;;;;25.18;22.11;100928.33;3496320;79;20530;-73
2022/05/01 12:23:03;;;;;;;3.30;3.10;;;;;;;24.77;22.52;100928.18;3510334;79;21084;-73
2022/05/01 12:27:55;;;;;;;2.67;2.25;;;;;;;24.09;22.60;100931.99;3478537;79;20973;-73
2022/05/01 12:32:54;;;;;;;5.20;3.90;;;;;;;23.07;24.19;100931.39;3483805;79;21000;-73
2022/05/01 12:37:50;;;;;;;3.17;2.87;;;;;;;22.50;24.31;100921.63;3439035;79;21492;-73
2022/05/01 12:48:01;;;;;;;3.02;2.55;;;;;;;23.21;23.79;100915.94;3427422;80;21001;-73
2022/05/01 12:53:02;;;;;;;4.15;2.30;;;;;;;23.33;24.29;100909.34;3427267;80;20927;-73
2022/05/01 12:58:00;;;;;;;3.83;2.42;;;;;;;22.38;25.30;100902.54;3464117;80;20952;-73
2022/05/01 13:02:51;;;;;;;2.95;2.70;;;;;;;21.70;26.65;100907.02;3527819;80;20963;-73
2022/05/01 13:07:42;;;;;;;2.47;2.25;;;;;;;21.50;27.88;100896.09;3460548;79;20911;-72
2022/05/01 13:12:37;;;;;;;2.55;2.30;;;;;;;21.33;27.13;100893.36;3509542;80;21262;-73
2022/05/01 13:17:29;;;;;;;2.37;2.10;;;;;;;21.14;26.90;100886.36;3506700;79;21213;-73
2022/05/01 13:22:21;;;;;;;4.60;2.67;;;;;;;21.08;27.42;100882.52;3498663;79;21619;-72
2022/05/01 13:27:13;;;;;;;2.75;2.42;;;;;;;21.84;28.09;100878.88;3516252;79;20996;-72
2022/05/01 13:32:07;;;;;;;2.65;2.30;;;;;;;21.90;26.40;100877.36;3453340;79;21189;-72
2022/05/01 13:37:02;;;;;;;4.28;3.47;;;;;;;22.26;26.17;100871.08;3514428;79;21130;-72
2022/05/01 13:47:04;;;;;;;8.23;6.70;;;;;;;21.92;26.31;100871.17;3526031;79;21458;-74
2022/05/01 13:51:56;;;;;;;6.10;5.35;;;;;;;21.93;26.17;100871.13;3530411;79;21009;-74
2022/05/01 13:56:47;;;;;;;3.05;2.72;;;;;;;21.19;26.89;100875.65;3434650;79;20951;-74
2022/05/01 14:01:38;;;;;;;3.58;2.77;;;;;;;20.66;27.59;100865.92;3454737;80;21075;-74
2022/05/01 14:06:30;;;;;;;3.08;2.42;;;;;;;20.30;28.29;100859.15;3508906;79;20987;-74
2022/05/01 14:11:22;;;;;;;6.05;5.05;;;;;;;21.09;28.54;100859.63;3455353;79;20940;-74
2022/05/01 14:16:14;;;;;;;2.72;2.33;;;;;;;21.54;27.27;100852.77;3503232;79;20936;-74
2022/05/01 14:21:05;;;;;;;4.17;2.30;;;;;;;21.88;27.09;100851.86;3509530;79;20952;-74
2022/05/01 14:25:56;;;;;;;10.20;8.28;;;;;;;21.51;26.89;100855.49;3460236;79;20923;-74
2022/05/01 14:31:15;;;;;;;3.83;2.40;;;;;;;20.82;26.91;100856.73;3461867;79;20987;-74
2022/05/01 14:36:08;;;;;;;2.62;2.20;;;;;;;20.30;27.24;100852.55;3503976;79;21523;-74
2022/05/01 14:41:03;;;;;;;2.22;2.02;;;;;;;20.31;27.18;100846.38;3484825;80;20944;-74
2022/05/01 14:46:03;;;;;;;3.15;2.67;;;;;;;20.70;26.93;100845.12;3489233;80;20987;-74
2022/05/01 14:50:57;;;;;;;2.52;2.02;;;;;;;21.20;26.65;100839.06;3465483;80;22602;-74
2022/05/01 14:55:51;;;;;;;2.58;2.30;;;;;;;21.29;26.11;100837.97;3427500;80;20932;-74
2022/05/01 15:11:04;;;;;;;3.12;2.35;;;;;;;22.01;25.14;100828.55;3468692;79;20947;-74
2022/05/01 15:16:27;;;;;;;4.00;2.30;;;;;;;21.41;25.30;100828.39;3475975;79;21106;-74
2022/05/01 15:27:10;;;;;;;3.45;2.30;;;;;;;21.31;25.15;100811.02;3501986;79;21069;-74
2022/05/01 15:32:07;;;;;;;2.77;2.12;;;;;;;21.41;25.39;100808.99;3468934;79;21339;-74
2022/05/01 15:36:58;;;;;;;;;;;;;;;21.51;24.80;100809.20;3488481;79;21488;-74
2022/05/01 15:42:04;;;;;;;5.08;2.92;;;;;;;21.30;24.83;100807.52;3499568;79;21915;-74
2022/05/01 15:47:00;;;;;;;4.92;3.55;;;;;;;21.13;24.63;100799.16;3480967;79;21497;-74
2022/05/01 15:57:04;;;;;;;6.10;3.50;;;;;;;21.02;25.16;100799.42;3310127;84;21010;-74
2022/05/01 16:01:59;;;;;;;5.30;2.80;;;;;;;20.94;25.08;100802.27;3297690;86;21399;-74
2022/05/01 16:06:53;;;;;;;2.40;2.20;;;;;;;21.01;25.61;100800.78;3299503;84;21458;-74
2022/05/01 16:11:50;;;;;;;2.58;1.67;;;;;;;20.95;25.48;100800.48;3220243;86;21099;-73
2022/05/01 16:17:10;;;;;;;3.02;2.10;;;;;;;20.84;25.42;100791.95;3300868;84;20964;-74
2022/05/01 16:22:14;;;;;;;2.10;1.90;;;;;;;20.67;25.24;100794.98;3294200;84;21490;-73
2022/05/01 16:27:06;;;;;;;4.53;2.27;;;;;;;20.62;25.75;100783.66;3353063;81;20948;-73
2022/05/01 16:32:16;;;;;;;4.30;2.20;;;;;;;20.47;25.88;100780.91;3408938;81;20955;-74
2022/05/01 16:37:12;;;;;;;5.80;2.45;;;;;;;20.38;27.04;100781.97;3292952;84;21448;-74
2022/05/01 16:42:04;;;;;;;2.72;2.20;;;;;;;20.24;27.66;100782.73;3282358;84;21523;-73
2022/05/01 16:46:59;;;;;;;2.55;2.08;;;;;;;20.03;26.80;100778.35;3305132;84;21023;-73
2022/05/01 16:51:51;;;;;;;4.30;2.10;;;;;;;19.85;27.14;100782.21;3275636;86;21000;-73
2022/05/01 16:56:43;;;;;;;4.05;2.27;;;;;;;19.74;27.44;100787.70;3246289;85;21121;-74
2022/05/01 17:01:37;;;;;;;4.45;2.50;;;;;;;19.58;28.79;100784.92;3382871;81;20979;-73
2022/05/01 17:06:39;;;;;;;3.37;2.52;;;;;;;19.32;29.55;100787.61;3433467;81;21477;-73
2022/05/01 17:11:56;;;;;;;2.70;2.00;;;;;;;18.92;30.95;100794.86;3461903;80;20927;-73
2022/05/01 17:17:15;;;;;;;3.52;2.25;;;;;;;18.53;32.40;100802.47;3518905;79;21616;-73
2022/05/01 17:22:10;;;;;;;20.20;3.55;;;;;;;18.12;32.77;100806.54;3489372;80;21199;-74
2022/05/01 17:27:06;;;;;;;13.13;2.75;;;;;;;17.77;33.08;100801.67;3427189;79;21434;-74
2022/05/01 17:32:02;;;;;;;4.60;2.95;;;;;;;17.42;34.60;100805.52;3463140;79;21442;-74
2022/05/01 17:37:00;;;;;;;2.42;2.20;;;;;;;17.06;34.72;100812.44;3474330;79;20942;-74
2022/05/01 17:41:57;;;;;;;3.12;2.62;;;;;;;16.71;35.66;100812.22;3496160;79;20938;-74
2022/05/01 17:46:54;;;;;;;5.20;3.12;;;;;;;16.37;35.63;100816.36;3513562;79;21256;-74
2022/05/01 17:51:48;;;;;;;8.98;3.75;;;;;;;16.06;36.90;100813.02;3485742;79;20927;-74
2022/05/01 17:56:39;;;;;;;6.53;3.40;;;;;;;15.75;36.48;100821.41;3449489;81;20918;-74
2022/05/01 18:01:36;;;;;;;4.97;3.05;;;;;;;15.44;37.84;100821.45;3455743;79;21475;-73
2022/05/01 18:11:55;;;;;;;9.80;3.70;;;;;;;14.92;37.90;100846.34;3512704;80;21045;-73
2022/05/01 18:17:07;;;;;;;85.42;13.60;;;;;;;14.64;39.01;100850.20;3489876;79;20971;-73
2022/05/01 18:22:12;;;;;;;13.08;5.37;;;;;;;14.36;39.16;100844.88;3468905;79;20991;-73
2022/05/01 18:27:08;;;;;;;17.37;5.85;;;;;;;14.12;39.63;100850.86;3488961;79;20943;-73
2022/05/01 18:32:30;;;;;;;12.10;5.03;;;;;;;13.90;40.12;100859.04;3485513;79;21010;-74
2022/05/01 18:37:31;;;;;;;6.42;3.83;;;;;;;13.76;40.58;100864.63;3485767;80;20978;-74
2022/05/01 18:42:24;;;;;;;9.98;4.95;;;;;;;13.53;41.20;100871.86;3439439;81;20927;-74
2022/05/01 18:47:16;;;;;;;13.22;5.30;;;;;;;13.35;41.68;100876.51;3491966;80;20938;-74
2022/05/01 18:52:09;;;;;;;7.87;5.03;;;;;;;13.17;42.38;100882.42;3467669;79;20923;-74
2022/05/01 18:57:02;;;;;;;8.90;6.05;;;;;;;13.01;42.54;100881.40;3490222;80;21492;-74
2022/05/01 19:01:56;;;;;;;8.98;6.05;;;;;;;12.86;42.77;100879.92;3473113;80;22763;-74
2022/05/01 19:07:07;;;;;;;8.00;5.42;;;;;;;12.71;43.16;100884.56;3524303;80;20967;-74
2022/05/01 19:12:29;;;;;;;11.55;4.37;;;;;;;12.54;43.58;100881.34;3524760;79;20951;-75
2022/05/01 19:17:51;;;;;;;11.50;4.92;;;;;;;12.36;44.05;100880.70;3499130;80;21119;-75
2022/05/01 19:23:19;;;;;;;12.50;6.08;;;;;;;12.19;44.51;100872.65;3498567;79;20931;-75
2022/05/01 19:28:43;;;;;;;12.37;5.62;;;;;;;12.01;44.52;100869.81;3397122;83;21578;-74
2022/05/01 19:33:40;;;;;;;13.93;8.60;;;;;;;11.85;45.58;100878.24;3370995;83;20988;-74
2022/05/01 19:38:54;;;;;;;22.85;10.75;;;;;;;11.72;45.71;100883.27;3388509;83;21071;-74
2022/05/01 19:44:05;;;;;;;34.67;17.95;;;;;;;11.58;46.09;100880.45;3375686;83;21579;-74
2022/05/01 19:54:17;;;;;;;29.42;18.07;;;;;;;11.28;46.62;100880.83;3401965;83;21034;-76
2022/05/01 19:59:08;;;;;;;37.17;24.37;;;;;;;11.10;47.24;100884.43;3378147;82;21819;-74
2022/05/01 20:03:59;;;;;;;35.25;21.27;;;;;;;10.95;47.30;100876.80;3367607;80;20960;-74
2022/05/01 20:08:54;;;;;;;36.65;21.70;;;;;;;10.83;47.75;100872.68;3438893;80;20983;-75
2022/05/01 20:13:47;;;;;;;26.87;17.52;;;;;;;10.73;48.09;100879.84;3427336;80;21082;-75
2022/05/01 20:18:51;;;;;;;27.20;16.50;;;;;;;10.63;48.24;100871.01;3454401;80;21282;-74
2022/05/01 20:24:09;;;;;;;23.98;11.70;;;;;;;10.46;48.68;100874.56;3455593;79;21019;-74
2022/05/01 20:29:21;;;;;;;20.20;10.20;;;;;;;10.33;49.21;100874.74;3481275;80;20958;-74
2022/05/01 20:34:41;;;;;;;15.58;7.42;;;;;;;10.24;49.46;100877.13;3502645;80;21457;-74
2022/05/01 20:39:56;;;;;;;14.07;7.47;;;;;;;10.07;49.82;100875.48;3503589;79;20968;-74
2022/05/01 20:45:10;;;;;;;17.42;8.70;;;;;;;9.95;49.97;100873.91;3478401;80;22459;-74
2022/05/01 20:50:09;;;;;;;11.00;8.25;;;;;;;9.85;50.58;100867.63;3470679;80;20947;-75
2022/05/01 20:55:03;;;;;;;14.30;9.03;;;;;;;9.69;50.90;100874.19;3429313;80;21535;-74
2022/05/01 20:59:57;;;;;;;14.65;8.35;;;;;;;9.56;51.91;100869.56;3429556;80;20943;-74
2022/05/01 21:04:51;;;;;;;13.25;8.15;;;;;;;9.45;52.37;100874.07;3491891;80;20958;-74
2022/05/01 21:09:43;;;;;;;11.80;7.67;;;;;;;9.36;52.72;100872.55;3511971;80;21488;-75
2022/05/01 21:14:36;;;;;;;12.28;7.62;;;;;;;9.29;53.01;100877.14;3493221;79;20947;-74
2022/05/01 21:19:28;;;;;;;14.95;7.45;;;;;;;9.23;53.01;100878.27;3453424;80;20982;-74
2022/05/01 21:24:19;;;;;;;20.52;8.20;;;;;;;9.10;52.95;100868.91;3514817;80;20978;-74
2022/05/01 21:34:19;;;;;;;9.35;7.28;;;;;;;8.93;53.68;100874.94;3463136;80;21024;-73
2022/05/01 21:39:10;;;;;;;11.90;7.65;;;;;;;8.80;54.00;100871.97;3453761;79;20990;-74
2022/05/01 21:44:01;;;;;;;13.68;9.13;;;;;;;8.70;54.45;100876.05;3484883;80;21130;-74
2022/05/01 21:48:52;;;;;;;11.10;8.33;;;;;;;8.53;54.76;100874.27;3493492;80;21481;-75
2022/05/01 21:53:43;;;;;;;15.08;9.03;;;;;;;8.53;54.76;100874.27;3473848;79;21014;-75
2022/05/01 21:58:35;;;;;;;12.82;9.18;;;;;;;8.43;55.18;100871.85;3465768;79;20960;-75
2022/05/01 22:03:26;;;;;;;16.27;8.95;;;;;;;8.31;55.50;100874.06;3498271;79;21617;-74
2022/05/01 22:08:17;;;;;;;12.75;9.15;;;;;;;8.12;56.18;100871.34;3446872;79;21398;-75
2022/05/01 22:13:10;;;;;;;15.48;9.55;;;;;;;8.00;56.32;100863.68;3468066;79;20993;-74
2022/05/01 22:18:01;;;;;;;19.10;13.48;;;;;;;8.00;56.32;100863.68;3463907;79;20927;-74
2022/05/01 22:22:53;;;;;;;14.53;11.55;;;;;;;7.93;56.51;100869.51;3435505;79;20950;-74
2022/05/01 22:27:46;;;;;;;14.33;10.05;;;;;;;7.88;56.39;100871.08;3434113;79;21042;-74
2022/05/01 22:32:38;;;;;;;23.15;12.43;;;;;;;7.79;56.67;100868.21;3421619;79;20928;-75
2022/05/01 22:37:29;;;;;;;14.87;11.63;;;;;;;7.73;56.88;100878.39;3463605;81;21420;-74
2022/05/01 22:42:20;;;;;;;19.27;12.70;;;;;;;7.56;56.97;100874.83;3462061;80;21452;-74
2022/05/01 22:47:11;;;;;;;27.58;20.48;;;;;;;7.50;57.54;100881.13;3462574;80;21194;-74
2022/05/01 22:52:03;;;;;;;29.15;19.42;;;;;;;7.40;57.80;100893.28;3474565;80;21594;-74
2022/05/01 22:56:54;;;;;;;24.47;18.17;;;;;;;7.36;58.00;100891.44;3454895;81;21058;-74
2022/05/01 23:01:46;;;;;;;21.17;15.00;;;;;;;7.24;58.21;100878.58;3483419;80;20983;-75
2022/05/01 23:06:37;;;;;;;20.15;14.25;;;;;;;7.20;58.30;100874.11;3404042;80;20995;-73
2022/05/01 23:11:28;;;;;;;21.23;14.75;;;;;;;7.11;58.49;100869.93;3484794;80;21426;-73
2022/05/01 23:16:19;;;;;;;19.70;15.83;;;;;;;7.11;58.56;100863.89;3449198;80;21312;-73
2022/05/01 23:21:10;;;;;;;20.45;15.18;;;;;;;7.02;58.28;100855.41;3415126;80;21010;-74
2022/05/01 23:26:01;;;;;;;23.75;16.25;;;;;;;6.93;59.06;100852.09;3426285;80;20970;-74
2022/05/01 23:30:52;;;;;;;22.98;16.70;;;;;;;6.82;59.41;100862.48;3457684;80;21533;-74
2022/05/01 23:35:45;;;;;;;24.35;17.17;;;;;;;6.84;59.23;100860.83;3513466;80;21510;-74
2022/05/01 23:40:38;;;;;;;21.65;15.35;;;;;;;6.78;59.42;100866.67;3457021;80;20979;-74
2022/05/01 23:45:29;;;;;;;15.40;12.10;;;;;;;6.78;59.33;100861.50;3430267;80;20983;-74
2022/05/01 23:50:21;;;;;;;15.08;11.50;;;;;;;6.74;59.45;100867.37;3453561;80;20916;-75
2022/05/01 23:55:13;;;;;;;19.10;12.78;;;;;;;6.71;59.63;100864.70;3481127;80;22166;-74
